sensor_id;sensor_type;location;lat;lon;timestamp;P1;durP1;ratioP1;P2;durP2;ratioP2
9138;SDS011;4604;48.616;9.548;2023-06-14T00:02:21;5.70;;;4.00;;
9138;SDS011;4604;48.616;9.548;2023-06-14T00:04:47;6.30;;;3.83;;
9138;SDS011;4604;48.616;9.548;2023-06-14T00:07:16;4.97;;;3.80;;
9138;SDS011;4604;48.616;9.548;2023-06-14T00:09:45;5.15;;;3.70;;
9138;SDS011;4604;48.616;9.548;2023-06-14T00:12:11;4.70;;;3.78;;
9138;SDS011;4604;48.616;9.548;2023-06-14T00:14:38;7.15;;;3.60;;
9138;SDS011;4604;48.616;9.548;2023-06-14T00:17:05;4.85;;;3.63;;
9138;SDS011;4604;48.616;9.548;2023-06-14T00:19:32;5.95;;;4.03;;
9138;SDS011;4604;48.616;9.548;2023-06-14T00:22:00;4.55;;;3.55;;
9138;SDS011;4604;48.616;9.548;2023-06-14T00:24:27;4.40;;;3.78;;
9138;SDS011;4604;48.616;9.548;2023-06-14T00:26:54;4.75;;;3.53;;
9138;SDS011;4604;48.616;9.548;2023-06-14T00:29:21;4.80;;;3.58;;
9138;SDS011;4604;48.616;9.548;2023-06-14T00:31:48;5.88;;;3.85;;
9138;SDS011;4604;48.616;9.548;2023-06-14T00:34:14;4.75;;;3.78;;
9138;SDS011;4604;48.616;9.548;2023-06-14T00:36:41;4.18;;;3.67;;
9138;SDS011;4604;48.616;9.548;2023-06-14T00:39:07;6.07;;;3.45;;
9138;SDS011;4604;48.616;9.548;2023-06-14T00:41:35;4.95;;;3.75;;
9138;SDS011;4604;48.616;9.548;2023-06-14T00:44:03;4.90;;;3.60;;
9138;SDS011;4604;48.616;9.548;2023-06-14T00:46:30;3.95;;;3.38;;
9138;SDS011;4604;48.616;9.548;2023-06-14T00:48:57;6.40;;;3.85;;
9138;SDS011;4604;48.616;9.548;2023-06-14T00:51:26;4.87;;;4.00;;
9138;SDS011;4604;48.616;9.548;2023-06-14T00:53:53;6.40;;;3.80;;
9138;SDS011;4604;48.616;9.548;2023-06-14T00:56:19;5.03;;;3.53;;
9138;SDS011;4604;48.616;9.548;2023-06-14T00:58:48;6.80;;;4.15;;
9138;SDS011;4604;48.616;9.548;2023-06-14T01:01:17;5.30;;;3.90;;
9138;SDS011;4604;48.616;9.548;2023-06-14T01:03:44;6.05;;;4.10;;
9138;SDS011;4604;48.616;9.548;2023-06-14T01:06:13;5.60;;;3.90;;
9138;SDS011;4604;48.616;9.548;2023-06-14T01:08:56;5.38;;;3.92;;
9138;SDS011;4604;48.616;9.548;2023-06-14T01:11:43;7.13;;;4.13;;
9138;SDS011;4604;48.616;9.548;2023-06-14T01:14:16;8.75;;;4.93;;
9138;SDS011;4604;48.616;9.548;2023-06-14T01:16:53;5.85;;;3.80;;
9138;SDS011;4604;48.616;9.548;2023-06-14T01:19:22;4.53;;;3.83;;
9138;SDS011;4604;48.616;9.548;2023-06-14T01:21:50;5.73;;;4.53;;
9138;SDS011;4604;48.616;9.548;2023-06-14T01:24:19;5.23;;;3.93;;
9138;SDS011;4604;48.616;9.548;2023-06-14T01:26:50;5.07;;;3.70;;
9138;SDS011;4604;48.616;9.548;2023-06-14T01:29:20;4.13;;;3.40;;
9138;SDS011;4604;48.616;9.548;2023-06-14T01:31:48;4.85;;;3.80;;
9138;SDS011;4604;48.616;9.548;2023-06-14T01:34:16;5.07;;;4.15;;
9138;SDS011;4604;48.616;9.548;2023-06-14T01:36:43;4.93;;;3.77;;
9138;SDS011;4604;48.616;9.548;2023-06-14T01:39:11;4.87;;;3.73;;
9138;SDS011;4604;48.616;9.548;2023-06-14T01:41:41;7.32;;;3.78;;
9138;SDS011;4604;48.616;9.548;2023-06-14T01:44:09;4.73;;;3.73;;
9138;SDS011;4604;48.616;9.548;2023-06-14T01:46:36;6.00;;;3.60;;
9138;SDS011;4604;48.616;9.548;2023-06-14T01:49:03;6.70;;;3.80;;
9138;SDS011;4604;48.616;9.548;2023-06-14T01:51:30;4.07;;;3.40;;
9138;SDS011;4604;48.616;9.548;2023-06-14T01:53:56;3.97;;;3.57;;
9138;SDS011;4604;48.616;9.548;2023-06-14T01:56:23;4.43;;;3.67;;
9138;SDS011;4604;48.616;9.548;2023-06-14T01:58:52;7.13;;;3.70;;
9138;SDS011;4604;48.616;9.548;2023-06-14T02:01:18;8.00;;;3.30;;
9138;SDS011;4604;48.616;9.548;2023-06-14T02:03:46;6.17;;;3.53;;
9138;SDS011;4604;48.616;9.548;2023-06-14T02:06:14;4.43;;;3.30;;
9138;SDS011;4604;48.616;9.548;2023-06-14T02:08:40;4.43;;;3.63;;
9138;SDS011;4604;48.616;9.548;2023-06-14T02:11:07;5.27;;;4.23;;
9138;SDS011;4604;48.616;9.548;2023-06-14T02:13:34;7.10;;;4.10;;
9138;SDS011;4604;48.616;9.548;2023-06-14T02:16:02;5.37;;;3.73;;
9138;SDS011;4604;48.616;9.548;2023-06-14T02:18:29;9.40;;;4.30;;
9138;SDS011;4604;48.616;9.548;2023-06-14T02:20:56;4.37;;;3.53;;
9138;SDS011;4604;48.616;9.548;2023-06-14T02:23:22;4.57;;;3.83;;
9138;SDS011;4604;48.616;9.548;2023-06-14T02:25:49;5.27;;;3.80;;
9138;SDS011;4604;48.616;9.548;2023-06-14T02:28:16;5.20;;;3.67;;
9138;SDS011;4604;48.616;9.548;2023-06-14T02:30:42;4.63;;;3.70;;
9138;SDS011;4604;48.616;9.548;2023-06-14T02:33:10;5.93;;;4.20;;
9138;SDS011;4604;48.616;9.548;2023-06-14T02:35:38;5.20;;;3.90;;
9138;SDS011;4604;48.616;9.548;2023-06-14T02:38:04;4.37;;;3.60;;
9138;SDS011;4604;48.616;9.548;2023-06-14T02:40:31;8.77;;;3.93;;
9138;SDS011;4604;48.616;9.548;2023-06-14T02:42:57;7.20;;;3.73;;
9138;SDS011;4604;48.616;9.548;2023-06-14T02:45:25;3.87;;;3.33;;
9138;SDS011;4604;48.616;9.548;2023-06-14T02:47:51;5.10;;;3.90;;
9138;SDS011;4604;48.616;9.548;2023-06-14T02:50:19;4.53;;;3.70;;
9138;SDS011;4604;48.616;9.548;2023-06-14T02:52:46;7.40;;;4.00;;
9138;SDS011;4604;48.616;9.548;2023-06-14T02:55:13;4.90;;;3.90;;
9138;SDS011;4604;48.616;9.548;2023-06-14T02:57:39;5.33;;;3.70;;
9138;SDS011;4604;48.616;9.548;2023-06-14T03:00:06;5.00;;;4.10;;
9138;SDS011;4604;48.616;9.548;2023-06-14T03:02:37;5.77;;;3.97;;
9138;SDS011;4604;48.616;9.548;2023-06-14T03:05:04;5.20;;;4.10;;
9138;SDS011;4604;48.616;9.548;2023-06-14T03:07:33;6.03;;;3.90;;
9138;SDS011;4604;48.616;9.548;2023-06-14T03:10:00;6.43;;;3.97;;
9138;SDS011;4604;48.616;9.548;2023-06-14T03:12:28;6.33;;;3.93;;
9138;SDS011;4604;48.616;9.548;2023-06-14T03:14:54;4.50;;;3.77;;
9138;SDS011;4604;48.616;9.548;2023-06-14T03:17:22;6.90;;;3.90;;
9138;SDS011;4604;48.616;9.548;2023-06-14T03:19:49;6.43;;;3.67;;
9138;SDS011;4604;48.616;9.548;2023-06-14T03:22:15;4.43;;;3.70;;
9138;SDS011;4604;48.616;9.548;2023-06-14T03:24:44;8.80;;;4.27;;
9138;SDS011;4604;48.616;9.548;2023-06-14T03:27:10;4.37;;;3.77;;
9138;SDS011;4604;48.616;9.548;2023-06-14T03:29:37;4.70;;;3.90;;
9138;SDS011;4604;48.616;9.548;2023-06-14T03:32:05;5.33;;;3.43;;
9138;SDS011;4604;48.616;9.548;2023-06-14T03:34:32;4.00;;;3.43;;
9138;SDS011;4604;48.616;9.548;2023-06-14T03:36:59;5.57;;;4.10;;
9138;SDS011;4604;48.616;9.548;2023-06-14T03:39:25;5.17;;;3.43;;
9138;SDS011;4604;48.616;9.548;2023-06-14T03:41:53;4.90;;;3.83;;
9138;SDS011;4604;48.616;9.548;2023-06-14T03:44:20;6.63;;;3.73;;
9138;SDS011;4604;48.616;9.548;2023-06-14T03:46:47;6.00;;;4.10;;
9138;SDS011;4604;48.616;9.548;2023-06-14T03:49:15;6.67;;;3.73;;
9138;SDS011;4604;48.616;9.548;2023-06-14T03:51:42;4.90;;;3.93;;
9138;SDS011;4604;48.616;9.548;2023-06-14T03:54:08;4.03;;;3.50;;
9138;SDS011;4604;48.616;9.548;2023-06-14T03:56:35;4.63;;;3.43;;
9138;SDS011;4604;48.616;9.548;2023-06-14T03:59:03;6.77;;;3.80;;
9138;SDS011;4604;48.616;9.548;2023-06-14T04:01:30;6.10;;;4.03;;
9138;SDS011;4604;48.616;9.548;2023-06-14T04:03:58;5.17;;;3.70;;
9138;SDS011;4604;48.616;9.548;2023-06-14T04:06:25;5.80;;;3.93;;
9138;SDS011;4604;48.616;9.548;2023-06-14T04:08:57;4.10;;;3.50;;
9138;SDS011;4604;48.616;9.548;2023-06-14T04:11:27;4.83;;;4.00;;
9138;SDS011;4604;48.616;9.548;2023-06-14T04:13:54;4.33;;;3.73;;
9138;SDS011;4604;48.616;9.548;2023-06-14T04:16:22;5.23;;;4.10;;
9138;SDS011;4604;48.616;9.548;2023-06-14T04:18:49;4.13;;;3.53;;
9138;SDS011;4604;48.616;9.548;2023-06-14T04:21:17;4.13;;;3.40;;
9138;SDS011;4604;48.616;9.548;2023-06-14T04:23:44;6.27;;;4.50;;
9138;SDS011;4604;48.616;9.548;2023-06-14T04:26:10;7.57;;;4.40;;
9138;SDS011;4604;48.616;9.548;2023-06-14T04:28:37;5.43;;;3.70;;
9138;SDS011;4604;48.616;9.548;2023-06-14T04:31:05;9.13;;;4.10;;
9138;SDS011;4604;48.616;9.548;2023-06-14T04:33:34;5.17;;;4.10;;
9138;SDS011;4604;48.616;9.548;2023-06-14T04:36:08;6.53;;;4.17;;
9138;SDS011;4604;48.616;9.548;2023-06-14T04:38:34;6.27;;;4.50;;
9138;SDS011;4604;48.616;9.548;2023-06-14T04:41:01;5.63;;;4.50;;
9138;SDS011;4604;48.616;9.548;2023-06-14T04:43:28;6.43;;;4.67;;
9138;SDS011;4604;48.616;9.548;2023-06-14T04:45:54;4.90;;;3.57;;
9138;SDS011;4604;48.616;9.548;2023-06-14T04:48:21;6.47;;;4.50;;
9138;SDS011;4604;48.616;9.548;2023-06-14T04:50:49;7.53;;;4.20;;
9138;SDS011;4604;48.616;9.548;2023-06-14T04:53:18;6.77;;;4.13;;
9138;SDS011;4604;48.616;9.548;2023-06-14T04:55:46;6.47;;;4.90;;
9138;SDS011;4604;48.616;9.548;2023-06-14T04:58:13;7.37;;;4.70;;
9138;SDS011;4604;48.616;9.548;2023-06-14T05:00:39;6.67;;;4.63;;
9138;SDS011;4604;48.616;9.548;2023-06-14T05:03:08;5.27;;;4.33;;
9138;SDS011;4604;48.616;9.548;2023-06-14T05:05:38;6.60;;;4.53;;
9138;SDS011;4604;48.616;9.548;2023-06-14T05:08:06;7.37;;;4.60;;
9138;SDS011;4604;48.616;9.548;2023-06-14T05:10:33;6.87;;;5.10;;
9138;SDS011;4604;48.616;9.548;2023-06-14T05:13:01;7.50;;;5.17;;
9138;SDS011;4604;48.616;9.548;2023-06-14T05:15:28;10.70;;;5.07;;
9138;SDS011;4604;48.616;9.548;2023-06-14T05:17:55;6.70;;;5.23;;
9138;SDS011;4604;48.616;9.548;2023-06-14T05:20:22;8.90;;;5.03;;
9138;SDS011;4604;48.616;9.548;2023-06-14T05:22:49;7.95;;;4.63;;
9138;SDS011;4604;48.616;9.548;2023-06-14T05:25:19;7.33;;;5.00;;
9138;SDS011;4604;48.616;9.548;2023-06-14T05:27:46;9.65;;;5.75;;
9138;SDS011;4604;48.616;9.548;2023-06-14T05:30:13;8.67;;;5.53;;
9138;SDS011;4604;48.616;9.548;2023-06-14T05:32:40;7.43;;;5.30;;
9138;SDS011;4604;48.616;9.548;2023-06-14T05:35:07;5.80;;;4.35;;
9138;SDS011;4604;48.616;9.548;2023-06-14T05:37:34;7.50;;;5.07;;
9138;SDS011;4604;48.616;9.548;2023-06-14T05:40:01;8.20;;;4.80;;
9138;SDS011;4604;48.616;9.548;2023-06-14T05:42:30;6.13;;;5.00;;
9138;SDS011;4604;48.616;9.548;2023-06-14T05:44:57;7.55;;;4.57;;
9138;SDS011;4604;48.616;9.548;2023-06-14T05:47:24;7.15;;;5.13;;
9138;SDS011;4604;48.616;9.548;2023-06-14T05:49:50;8.60;;;5.55;;
9138;SDS011;4604;48.616;9.548;2023-06-14T05:52:17;6.30;;;4.70;;
9138;SDS011;4604;48.616;9.548;2023-06-14T05:54:44;8.32;;;5.68;;
9138;SDS011;4604;48.616;9.548;2023-06-14T05:57:11;7.22;;;5.47;;
9138;SDS011;4604;48.616;9.548;2023-06-14T05:59:39;6.60;;;4.93;;
9138;SDS011;4604;48.616;9.548;2023-06-14T06:02:06;7.20;;;5.38;;
9138;SDS011;4604;48.616;9.548;2023-06-14T06:04:32;6.45;;;5.07;;
9138;SDS011;4604;48.616;9.548;2023-06-14T06:07:00;7.05;;;4.90;;
9138;SDS011;4604;48.616;9.548;2023-06-14T06:09:26;8.02;;;5.28;;
9138;SDS011;4604;48.616;9.548;2023-06-14T06:11:53;6.55;;;5.13;;
9138;SDS011;4604;48.616;9.548;2023-06-14T06:14:20;6.57;;;4.45;;
9138;SDS011;4604;48.616;9.548;2023-06-14T06:16:48;7.95;;;4.85;;
9138;SDS011;4604;48.616;9.548;2023-06-14T06:19:14;6.00;;;4.95;;
9138;SDS011;4604;48.616;9.548;2023-06-14T06:21:41;9.52;;;5.75;;
9138;SDS011;4604;48.616;9.548;2023-06-14T06:24:07;7.40;;;5.13;;
9138;SDS011;4604;48.616;9.548;2023-06-14T06:26:34;9.88;;;5.80;;
9138;SDS011;4604;48.616;9.548;2023-06-14T06:29:01;11.45;;;5.45;;
9138;SDS011;4604;48.616;9.548;2023-06-14T06:31:28;8.65;;;5.68;;
9138;SDS011;4604;48.616;9.548;2023-06-14T06:33:56;13.73;;;6.38;;
9138;SDS011;4604;48.616;9.548;2023-06-14T06:36:22;8.57;;;5.25;;
9138;SDS011;4604;48.616;9.548;2023-06-14T06:38:49;9.35;;;5.10;;
9138;SDS011;4604;48.616;9.548;2023-06-14T06:41:16;7.65;;;5.70;;
9138;SDS011;4604;48.616;9.548;2023-06-14T06:43:42;8.48;;;5.43;;
9138;SDS011;4604;48.616;9.548;2023-06-14T06:46:09;8.98;;;5.20;;
9138;SDS011;4604;48.616;9.548;2023-06-14T06:48:36;14.63;;;5.70;;
9138;SDS011;4604;48.616;9.548;2023-06-14T06:51:04;12.02;;;5.97;;
9138;SDS011;4604;48.616;9.548;2023-06-14T06:53:30;11.05;;;5.78;;
9138;SDS011;4604;48.616;9.548;2023-06-14T06:55:57;19.83;;;7.18;;
9138;SDS011;4604;48.616;9.548;2023-06-14T06:58:24;7.97;;;5.63;;
9138;SDS011;4604;48.616;9.548;2023-06-14T07:00:50;11.85;;;6.07;;
9138;SDS011;4604;48.616;9.548;2023-06-14T07:03:17;11.40;;;5.78;;
9138;SDS011;4604;48.616;9.548;2023-06-14T07:05:44;11.27;;;5.93;;
9138;SDS011;4604;48.616;9.548;2023-06-14T07:08:12;11.05;;;5.88;;
9138;SDS011;4604;48.616;9.548;2023-06-14T07:10:38;15.23;;;5.60;;
9138;SDS011;4604;48.616;9.548;2023-06-14T07:13:05;10.00;;;5.40;;
9138;SDS011;4604;48.616;9.548;2023-06-14T07:15:32;10.32;;;5.40;;
9138;SDS011;4604;48.616;9.548;2023-06-14T07:17:58;7.68;;;5.15;;
9138;SDS011;4604;48.616;9.548;2023-06-14T07:20:25;8.40;;;5.15;;
9138;SDS011;4604;48.616;9.548;2023-06-14T07:22:52;7.03;;;4.90;;
9138;SDS011;4604;48.616;9.548;2023-06-14T07:25:20;6.43;;;5.00;;
9138;SDS011;4604;48.616;9.548;2023-06-14T07:27:47;8.43;;;5.10;;
9138;SDS011;4604;48.616;9.548;2023-06-14T07:30:14;8.88;;;5.07;;
9138;SDS011;4604;48.616;9.548;2023-06-14T07:32:40;7.93;;;5.15;;
9138;SDS011;4604;48.616;9.548;2023-06-14T07:35:07;6.47;;;5.07;;
9138;SDS011;4604;48.616;9.548;2023-06-14T07:37:34;10.27;;;5.22;;
9138;SDS011;4604;48.616;9.548;2023-06-14T07:40:01;8.52;;;5.85;;
9138;SDS011;4604;48.616;9.548;2023-06-14T07:42:33;6.32;;;5.18;;
9138;SDS011;4604;48.616;9.548;2023-06-14T07:45:00;9.15;;;5.60;;
9138;SDS011;4604;48.616;9.548;2023-06-14T07:47:27;7.25;;;4.85;;
9138;SDS011;4604;48.616;9.548;2023-06-14T07:49:53;7.90;;;5.00;;
9138;SDS011;4604;48.616;9.548;2023-06-14T07:52:20;9.32;;;5.70;;
9138;SDS011;4604;48.616;9.548;2023-06-14T07:54:47;7.28;;;4.90;;
9138;SDS011;4604;48.616;9.548;2023-06-14T07:57:13;7.38;;;4.72;;
9138;SDS011;4604;48.616;9.548;2023-06-14T07:59:41;5.53;;;4.60;;
9138;SDS011;4604;48.616;9.548;2023-06-14T08:02:08;10.88;;;4.80;;
9138;SDS011;4604;48.616;9.548;2023-06-14T08:04:34;7.95;;;4.80;;
9138;SDS011;4604;48.616;9.548;2023-06-14T08:07:01;6.00;;;5.00;;
9138;SDS011;4604;48.616;9.548;2023-06-14T08:09:28;6.13;;;4.55;;
9138;SDS011;4604;48.616;9.548;2023-06-14T08:11:55;9.75;;;5.63;;
9138;SDS011;4604;48.616;9.548;2023-06-14T08:14:21;6.78;;;4.90;;
9138;SDS011;4604;48.616;9.548;2023-06-14T08:16:49;7.30;;;4.25;;
9138;SDS011;4604;48.616;9.548;2023-06-14T08:19:16;9.68;;;4.95;;
9138;SDS011;4604;48.616;9.548;2023-06-14T08:21:43;5.25;;;4.30;;
9138;SDS011;4604;48.616;9.548;2023-06-14T08:24:11;7.07;;;4.53;;
9138;SDS011;4604;48.616;9.548;2023-06-14T08:26:38;6.90;;;4.60;;
9138;SDS011;4604;48.616;9.548;2023-06-14T08:29:04;8.38;;;4.25;;
9138;SDS011;4604;48.616;9.548;2023-06-14T08:31:31;8.57;;;4.90;;
9138;SDS011;4604;48.616;9.548;2023-06-14T08:34:00;6.05;;;4.50;;
9138;SDS011;4604;48.616;9.548;2023-06-14T08:36:26;5.32;;;4.50;;
9138;SDS011;4604;48.616;9.548;2023-06-14T08:38:53;9.20;;;4.70;;
9138;SDS011;4604;48.616;9.548;2023-06-14T08:41:21;8.05;;;4.43;;
9138;SDS011;4604;48.616;9.548;2023-06-14T08:43:49;7.38;;;4.13;;
9138;SDS011;4604;48.616;9.548;2023-06-14T08:46:17;7.43;;;4.68;;
9138;SDS011;4604;48.616;9.548;2023-06-14T08:48:46;6.75;;;4.47;;
9138;SDS011;4604;48.616;9.548;2023-06-14T08:51:16;7.10;;;4.50;;
9138;SDS011;4604;48.616;9.548;2023-06-14T08:53:46;7.00;;;4.72;;
9138;SDS011;4604;48.616;9.548;2023-06-14T08:56:18;6.63;;;4.70;;
9138;SDS011;4604;48.616;9.548;2023-06-14T08:58:45;6.55;;;5.32;;
9138;SDS011;4604;48.616;9.548;2023-06-14T09:01:13;7.78;;;5.00;;
9138;SDS011;4604;48.616;9.548;2023-06-14T09:03:42;8.70;;;4.85;;
9138;SDS011;4604;48.616;9.548;2023-06-14T09:06:10;6.78;;;4.40;;
9138;SDS011;4604;48.616;9.548;2023-06-14T09:08:40;8.63;;;4.65;;
9138;SDS011;4604;48.616;9.548;2023-06-14T09:11:08;10.75;;;4.53;;
9138;SDS011;4604;48.616;9.548;2023-06-14T09:13:37;13.32;;;4.38;;
9138;SDS011;4604;48.616;9.548;2023-06-14T09:16:04;5.22;;;4.55;;
9138;SDS011;4604;48.616;9.548;2023-06-14T09:18:34;7.25;;;4.88;;
9138;SDS011;4604;48.616;9.548;2023-06-14T09:21:02;5.75;;;4.53;;
9138;SDS011;4604;48.616;9.548;2023-06-14T09:23:29;8.73;;;4.60;;
9138;SDS011;4604;48.616;9.548;2023-06-14T09:26:01;5.95;;;4.53;;
9138;SDS011;4604;48.616;9.548;2023-06-14T09:28:27;6.53;;;4.43;;
9138;SDS011;4604;48.616;9.548;2023-06-14T09:30:54;8.27;;;4.78;;
9138;SDS011;4604;48.616;9.548;2023-06-14T09:33:21;6.65;;;4.50;;
9138;SDS011;4604;48.616;9.548;2023-06-14T09:35:50;4.97;;;4.43;;
9138;SDS011;4604;48.616;9.548;2023-06-14T09:38:18;5.80;;;4.20;;
9138;SDS011;4604;48.616;9.548;2023-06-14T09:40:45;5.50;;;4.30;;
9138;SDS011;4604;48.616;9.548;2023-06-14T09:43:13;4.80;;;4.25;;
9138;SDS011;4604;48.616;9.548;2023-06-14T09:45:40;6.68;;;3.88;;
9138;SDS011;4604;48.616;9.548;2023-06-14T09:48:10;4.93;;;4.35;;
9138;SDS011;4604;48.616;9.548;2023-06-14T09:50:42;5.80;;;4.25;;
9138;SDS011;4604;48.616;9.548;2023-06-14T09:53:11;4.90;;;4.28;;
9138;SDS011;4604;48.616;9.548;2023-06-14T09:55:39;7.07;;;4.28;;
9138;SDS011;4604;48.616;9.548;2023-06-14T09:58:07;7.63;;;4.40;;
9138;SDS011;4604;48.616;9.548;2023-06-14T10:00:36;7.32;;;4.88;;
9138;SDS011;4604;48.616;9.548;2023-06-14T10:03:06;6.00;;;4.22;;
9138;SDS011;4604;48.616;9.548;2023-06-14T10:05:39;4.72;;;4.10;;
9138;SDS011;4604;48.616;9.548;2023-06-14T10:08:10;5.32;;;4.18;;
9138;SDS011;4604;48.616;9.548;2023-06-14T10:10:41;7.80;;;4.40;;
9138;SDS011;4604;48.616;9.548;2023-06-14T10:13:09;5.93;;;4.40;;
9138;SDS011;4604;48.616;9.548;2023-06-14T10:15:41;7.10;;;4.22;;
9138;SDS011;4604;48.616;9.548;2023-06-14T10:18:16;6.35;;;4.50;;
9138;SDS011;4604;48.616;9.548;2023-06-14T10:20:52;7.90;;;4.30;;
9138;SDS011;4604;48.616;9.548;2023-06-14T10:23:24;8.65;;;4.88;;
9138;SDS011;4604;48.616;9.548;2023-06-14T10:25:56;5.40;;;4.18;;
9138;SDS011;4604;48.616;9.548;2023-06-14T10:28:25;9.52;;;4.40;;
9138;SDS011;4604;48.616;9.548;2023-06-14T10:31:03;6.05;;;4.63;;
9138;SDS011;4604;48.616;9.548;2023-06-14T10:33:30;5.57;;;4.28;;
9138;SDS011;4604;48.616;9.548;2023-06-14T10:36:07;8.73;;;4.80;;
9138;SDS011;4604;48.616;9.548;2023-06-14T10:38:35;6.32;;;4.45;;
9138;SDS011;4604;48.616;9.548;2023-06-14T10:41:03;6.80;;;5.13;;
9138;SDS011;4604;48.616;9.548;2023-06-14T10:43:30;5.10;;;4.25;;
9138;SDS011;4604;48.616;9.548;2023-06-14T10:46:14;6.30;;;4.82;;
9138;SDS011;4604;48.616;9.548;2023-06-14T10:48:42;5.10;;;4.28;;
9138;SDS011;4604;48.616;9.548;2023-06-14T10:51:15;5.32;;;4.20;;
9138;SDS011;4604;48.616;9.548;2023-06-14T10:53:45;10.75;;;4.78;;
9138;SDS011;4604;48.616;9.548;2023-06-14T10:56:22;5.68;;;4.75;;
9138;SDS011;4604;48.616;9.548;2023-06-14T10:58:51;5.63;;;4.70;;
9138;SDS011;4604;48.616;9.548;2023-06-14T11:01:19;6.95;;;4.10;;
9138;SDS011;4604;48.616;9.548;2023-06-14T11:03:55;8.35;;;4.55;;
9138;SDS011;4604;48.616;9.548;2023-06-14T11:06:23;9.40;;;4.97;;
9138;SDS011;4604;48.616;9.548;2023-06-14T11:12:03;5.93;;;4.15;;
9138;SDS011;4604;48.616;9.548;2023-06-14T11:14:30;6.00;;;3.85;;
9138;SDS011;4604;48.616;9.548;2023-06-14T11:16:58;6.95;;;4.18;;
9138;SDS011;4604;48.616;9.548;2023-06-14T11:19:25;5.28;;;4.20;;
9138;SDS011;4604;48.616;9.548;2023-06-14T11:21:53;5.40;;;4.18;;
9138;SDS011;4604;48.616;9.548;2023-06-14T11:24:20;4.68;;;4.15;;
9138;SDS011;4604;48.616;9.548;2023-06-14T11:26:47;4.65;;;4.25;;
9138;SDS011;4604;48.616;9.548;2023-06-14T11:29:14;5.10;;;4.50;;
9138;SDS011;4604;48.616;9.548;2023-06-14T11:31:43;5.75;;;4.72;;
9138;SDS011;4604;48.616;9.548;2023-06-14T11:34:12;6.57;;;4.15;;
9138;SDS011;4604;48.616;9.548;2023-06-14T11:36:39;5.38;;;4.45;;
9138;SDS011;4604;48.616;9.548;2023-06-14T11:39:07;8.82;;;4.60;;
9138;SDS011;4604;48.616;9.548;2023-06-14T11:41:38;4.60;;;4.07;;
9138;SDS011;4604;48.616;9.548;2023-06-14T11:44:08;7.18;;;4.35;;
9138;SDS011;4604;48.616;9.548;2023-06-14T11:46:35;5.60;;;4.18;;
9138;SDS011;4604;48.616;9.548;2023-06-14T11:49:02;7.30;;;5.03;;
9138;SDS011;4604;48.616;9.548;2023-06-14T11:51:30;5.95;;;4.43;;
9138;SDS011;4604;48.616;9.548;2023-06-14T11:53:58;5.85;;;4.28;;
9138;SDS011;4604;48.616;9.548;2023-06-14T11:56:25;6.18;;;5.07;;
9138;SDS011;4604;48.616;9.548;2023-06-14T11:58:52;5.15;;;4.63;;
9138;SDS011;4604;48.616;9.548;2023-06-14T12:01:21;7.78;;;4.50;;
9138;SDS011;4604;48.616;9.548;2023-06-14T12:03:48;5.45;;;4.05;;
9138;SDS011;4604;48.616;9.548;2023-06-14T12:06:16;4.85;;;4.22;;
9138;SDS011;4604;48.616;9.548;2023-06-14T12:08:55;5.30;;;4.80;;
9138;SDS011;4604;48.616;9.548;2023-06-14T12:11:21;5.45;;;4.63;;
9138;SDS011;4604;48.616;9.548;2023-06-14T12:13:48;5.20;;;4.70;;
9138;SDS011;4604;48.616;9.548;2023-06-14T12:16:15;4.85;;;4.20;;
9138;SDS011;4604;48.616;9.548;2023-06-14T12:18:42;5.00;;;4.50;;
9138;SDS011;4604;48.616;9.548;2023-06-14T12:21:10;5.10;;;4.30;;
9138;SDS011;4604;48.616;9.548;2023-06-14T12:23:44;5.25;;;4.43;;
9138;SDS011;4604;48.616;9.548;2023-06-14T12:26:17;8.60;;;4.30;;
9138;SDS011;4604;48.616;9.548;2023-06-14T12:28:45;5.72;;;4.10;;
9138;SDS011;4604;48.616;9.548;2023-06-14T12:31:14;12.77;;;4.70;;
9138;SDS011;4604;48.616;9.548;2023-06-14T12:33:42;6.60;;;4.45;;
9138;SDS011;4604;48.616;9.548;2023-06-14T12:36:14;7.00;;;4.28;;
9138;SDS011;4604;48.616;9.548;2023-06-14T12:38:40;7.88;;;4.30;;
9138;SDS011;4604;48.616;9.548;2023-06-14T12:41:07;5.63;;;4.43;;
9138;SDS011;4604;48.616;9.548;2023-06-14T12:43:36;6.18;;;4.60;;
9138;SDS011;4604;48.616;9.548;2023-06-14T12:46:02;9.20;;;4.50;;
9138;SDS011;4604;48.616;9.548;2023-06-14T12:48:29;7.30;;;4.60;;
9138;SDS011;4604;48.616;9.548;2023-06-14T12:50:56;5.35;;;4.85;;
9138;SDS011;4604;48.616;9.548;2023-06-14T12:53:23;5.88;;;4.50;;
9138;SDS011;4604;48.616;9.548;2023-06-14T12:55:50;9.68;;;4.70;;
9138;SDS011;4604;48.616;9.548;2023-06-14T12:58:17;6.22;;;4.28;;
9138;SDS011;4604;48.616;9.548;2023-06-14T13:00:46;6.13;;;4.35;;
9138;SDS011;4604;48.616;9.548;2023-06-14T13:03:12;6.75;;;4.50;;
9138;SDS011;4604;48.616;9.548;2023-06-14T13:05:39;6.38;;;4.40;;
9138;SDS011;4604;48.616;9.548;2023-06-14T13:08:06;5.85;;;4.28;;
9138;SDS011;4604;48.616;9.548;2023-06-14T13:10:34;5.18;;;4.13;;
9138;SDS011;4604;48.616;9.548;2023-06-14T13:13:04;5.47;;;4.10;;
9138;SDS011;4604;48.616;9.548;2023-06-14T13:15:32;4.95;;;4.50;;
9138;SDS011;4604;48.616;9.548;2023-06-14T13:18:01;6.95;;;5.10;;
9138;SDS011;4604;48.616;9.548;2023-06-14T13:20:28;5.25;;;4.50;;
9138;SDS011;4604;48.616;9.548;2023-06-14T13:22:55;4.78;;;4.32;;
9138;SDS011;4604;48.616;9.548;2023-06-14T13:25:21;6.43;;;4.50;;
9138;SDS011;4604;48.616;9.548;2023-06-14T13:27:48;5.05;;;4.53;;
9138;SDS011;4604;48.616;9.548;2023-06-14T13:30:15;4.78;;;4.28;;
9138;SDS011;4604;48.616;9.548;2023-06-14T13:32:42;10.63;;;4.60;;
9138;SDS011;4604;48.616;9.548;2023-06-14T13:35:10;5.25;;;4.22;;
9138;SDS011;4604;48.616;9.548;2023-06-14T13:37:37;4.97;;;4.10;;
9138;SDS011;4604;48.616;9.548;2023-06-14T13:40:04;6.53;;;4.40;;
9138;SDS011;4604;48.616;9.548;2023-06-14T13:42:32;8.50;;;4.28;;
9138;SDS011;4604;48.616;9.548;2023-06-14T13:44:59;7.72;;;4.30;;
9138;SDS011;4604;48.616;9.548;2023-06-14T13:47:25;5.63;;;4.18;;
9138;SDS011;4604;48.616;9.548;2023-06-14T13:49:52;5.68;;;4.35;;
9138;SDS011;4604;48.616;9.548;2023-06-14T13:52:20;4.93;;;4.30;;
9138;SDS011;4604;48.616;9.548;2023-06-14T13:54:47;4.70;;;4.30;;
9138;SDS011;4604;48.616;9.548;2023-06-14T13:57:14;7.47;;;4.63;;
9138;SDS011;4604;48.616;9.548;2023-06-14T13:59:43;5.93;;;4.38;;
9138;SDS011;4604;48.616;9.548;2023-06-14T14:02:10;4.72;;;4.18;;
9138;SDS011;4604;48.616;9.548;2023-06-14T14:04:37;4.47;;;4.07;;
9138;SDS011;4604;48.616;9.548;2023-06-14T14:07:05;4.90;;;4.40;;
9138;SDS011;4604;48.616;9.548;2023-06-14T14:09:34;6.40;;;4.03;;
9138;SDS011;4604;48.616;9.548;2023-06-14T14:12:02;7.30;;;4.43;;
9138;SDS011;4604;48.616;9.548;2023-06-14T14:14:29;5.45;;;4.30;;
9138;SDS011;4604;48.616;9.548;2023-06-14T14:16:57;6.47;;;4.35;;
9138;SDS011;4604;48.616;9.548;2023-06-14T14:19:24;6.00;;;4.00;;
9138;SDS011;4604;48.616;9.548;2023-06-14T14:21:50;4.95;;;4.32;;
9138;SDS011;4604;48.616;9.548;2023-06-14T14:24:18;6.20;;;4.13;;
9138;SDS011;4604;48.616;9.548;2023-06-14T14:26:46;6.50;;;4.63;;
9138;SDS011;4604;48.616;9.548;2023-06-14T14:29:14;6.28;;;4.30;;
9138;SDS011;4604;48.616;9.548;2023-06-14T14:31:42;5.03;;;4.32;;
9138;SDS011;4604;48.616;9.548;2023-06-14T14:34:08;5.40;;;4.28;;
9138;SDS011;4604;48.616;9.548;2023-06-14T14:36:35;5.15;;;4.28;;
9138;SDS011;4604;48.616;9.548;2023-06-14T14:39:03;8.18;;;4.50;;
9138;SDS011;4604;48.616;9.548;2023-06-14T14:41:30;5.68;;;4.20;;
9138;SDS011;4604;48.616;9.548;2023-06-14T14:43:58;6.22;;;4.25;;
9138;SDS011;4604;48.616;9.548;2023-06-14T14:46:25;5.75;;;4.30;;
9138;SDS011;4604;48.616;9.548;2023-06-14T14:48:53;6.38;;;3.97;;
9138;SDS011;4604;48.616;9.548;2023-06-14T14:51:19;6.15;;;4.18;;
9138;SDS011;4604;48.616;9.548;2023-06-14T14:53:46;8.48;;;4.10;;
9138;SDS011;4604;48.616;9.548;2023-06-14T14:56:12;6.78;;;4.30;;
9138;SDS011;4604;48.616;9.548;2023-06-14T14:58:39;4.63;;;4.13;;
9138;SDS011;4604;48.616;9.548;2023-06-14T15:01:07;10.32;;;4.05;;
9138;SDS011;4604;48.616;9.548;2023-06-14T15:03:33;5.63;;;4.03;;
9138;SDS011;4604;48.616;9.548;2023-06-14T15:06:00;5.85;;;4.30;;
9138;SDS011;4604;48.616;9.548;2023-06-14T15:08:27;5.65;;;3.92;;
9138;SDS011;4604;48.616;9.548;2023-06-14T15:10:53;8.15;;;4.30;;
9138;SDS011;4604;48.616;9.548;2023-06-14T15:13:20;9.57;;;4.28;;
9138;SDS011;4604;48.616;9.548;2023-06-14T15:15:48;6.40;;;4.57;;
9138;SDS011;4604;48.616;9.548;2023-06-14T15:18:16;4.63;;;4.20;;
9138;SDS011;4604;48.616;9.548;2023-06-14T15:20:45;6.50;;;4.18;;
9138;SDS011;4604;48.616;9.548;2023-06-14T15:23:12;5.95;;;4.10;;